Time;durP1;ratioP1;P1;durP2;ratioP2;P2;SDS_P1;SDS_P2;PMS_P1;PMS_P2;Temp;Humidity;BMP_temperature;BMP_pressure;BME280_temperature;BME280_humidity;BME280_pressure;Samples;Min_cycle;Max_cycle;Signal;HPM_P1;HPM_P2
2022/01/27 00:05:48;;;;;;;72.85;34.63;;;5.90;92.00;;;;;;6167817;23;20101;-79
2022/01/27 00:08:31;;;;;;;63.60;34.35;;;6.00;92.10;;;;;;6142448;23;20585;-80
2022/01/27 00:11:15;;;;;;;65.00;35.08;;;5.90;92.00;;;;;;6145401;23;20048;-80
2022/01/27 00:16:40;;;;;;;62.40;33.20;;;5.90;92.00;;;;;;6168461;23;20024;-80
2022/01/27 00:19:08;;;;;;;63.83;34.42;;;6.00;92.00;;;;;;6140590;23;20024;-80
2022/01/27 00:21:37;;;;;;;65.28;33.72;;;5.90;92.00;;;;;;6164112;23;20142;-80
2022/01/27 00:24:06;;;;;;;67.38;33.80;;;6.00;92.00;;;;;;6102810;23;20413;-80
2022/01/27 00:26:41;;;;;;;57.70;32.35;;;5.90;91.90;;;;;;6105611;23;20018;-79
2022/01/27 00:29:13;;;;;;;65.05;32.10;;;5.90;91.90;;;;;;6081084;23;20087;-81
2022/01/27 00:31:44;;;;;;;61.08;32.10;;;6.00;91.90;;;;;;6082283;23;20014;-79
2022/01/27 00:34:25;;;;;;;58.15;33.25;;;6.00;91.90;;;;;;6085591;23;20029;-80
2022/01/27 00:36:58;;;;;;;67.15;32.33;;;6.00;91.90;;;;;;6079329;23;20021;-80
2022/01/27 00:39:42;;;;;;;59.50;32.70;;;5.90;91.90;;;;;;6021868;23;20510;-80
2022/01/27 00:42:32;;;;;;;67.35;33.78;;;5.90;91.80;;;;;;6030070;23;20022;-79
2022/01/27 00:44:59;;;;;;;59.95;31.17;;;6.00;91.90;;;;;;6022533;23;20019;-80
2022/01/27 00:47:36;;;;;;;57.00;31.20;;;6.00;91.90;;;;;;5998745;23;20023;-79
2022/01/27 00:50:06;;;;;;;59.28;32.33;;;6.00;91.80;;;;;;6046879;23;20054;-79
2022/01/27 00:52:55;;;;;;;61.20;30.10;;;6.00;91.80;;;;;;6049754;23;20025;-80
2022/01/27 00:55:37;;;;;;;57.70;31.08;;;6.00;91.80;;;;;;6110982;23;20024;-79
2022/01/27 01:01:03;;;;;;;53.25;28.90;;;6.00;91.80;;;;;;6110820;23;20028;-79
2022/01/27 01:03:35;;;;;;;57.53;31.02;;;6.00;91.80;;;;;;6082802;23;20021;-79
2022/01/27 01:17:00;;;;;;;58.78;30.98;;;6.00;91.70;;;;;;6092874;23;20022;-79
2022/01/27 01:33:24;;;;;;;57.80;29.50;;;6.10;91.70;;;;;;6106233;23;20022;-79
2022/01/27 01:36:12;;;;;;;52.25;29.67;;;6.10;91.70;;;;;;6105061;23;20014;-79
2022/01/27 01:38:38;;;;;;;54.03;28.40;;;6.10;91.70;;;;;;6063825;23;20112;-79
2022/01/27 01:41:08;;;;;;;54.63;30.60;;;6.10;91.70;;;;;;6081646;23;20022;-79
2022/01/27 01:43:36;;;;;;;50.70;29.35;;;6.10;91.70;;;;;;6056433;23;20014;-79
2022/01/27 01:46:14;;;;;;;55.22;29.95;;;6.10;91.70;;;;;;6061520;23;20123;-80
2022/01/27 01:48:46;;;;;;;57.45;29.60;;;6.10;91.70;;;;;;6081682;23;20030;-80
2022/01/27 01:51:32;;;;;;;54.97;28.98;;;6.10;91.70;;;;;;6103894;23;20023;-80
2022/01/27 01:53:58;;;;;;;57.80;30.45;;;6.10;91.60;;;;;;6112665;23;20025;-79
2022/01/27 01:56:29;;;;;;;62.78;30.67;;;6.20;91.70;;;;;;6162111;23;20013;-80
2022/01/27 01:59:01;;;;;;;55.85;31.27;;;6.10;91.60;;;;;;6166041;23;20021;-79
2022/01/27 02:01:30;;;;;;;52.80;29.90;;;6.10;91.60;;;;;;6190764;23;20025;-79
2022/01/27 02:04:01;;;;;;;62.00;30.42;;;6.10;91.60;;;;;;6116695;23;20099;-79
2022/01/27 02:20:25;;;;;;;56.92;31.35;;;6.10;91.60;;;;;;6173536;23;20021;-79
2022/01/27 02:22:57;;;;;;;62.42;30.58;;;6.10;91.60;;;;;;6144612;23;20175;-79
2022/01/27 02:25:24;;;;;;;60.42;31.88;;;6.10;91.50;;;;;;6115817;23;20017;-80
2022/01/27 02:27:57;;;;;;;58.33;31.13;;;6.10;91.60;;;;;;6166384;23;20013;-79
2022/01/27 02:30:24;;;;;;;67.95;33.25;;;6.10;91.50;;;;;;6117514;23;20100;-79
2022/01/27 02:32:54;;;;;;;68.55;32.90;;;6.10;91.50;;;;;;6167274;23;20024;-79
2022/01/27 02:35:21;;;;;;;58.42;31.25;;;6.10;91.50;;;;;;6118973;23;20100;-80
2022/01/27 02:37:55;;;;;;;55.92;30.95;;;6.10;91.50;;;;;;6165209;23;20087;-80
2022/01/27 02:40:43;;;;;;;60.47;32.65;;;6.10;91.50;;;;;;6149100;23;20020;-79
2022/01/27 02:43:48;;;;;;;63.33;31.90;;;6.10;91.50;;;;;;6148134;23;20016;-79
2022/01/27 02:46:22;;;;;;;64.57;32.05;;;6.10;91.50;;;;;;6168934;23;20060;-79
2022/01/27 02:48:57;;;;;;;59.38;33.10;;;6.10;91.50;;;;;;6139617;23;20027;-78
2022/01/27 02:51:26;;;;;;;60.65;32.40;;;6.10;91.50;;;;;;6163904;23;20017;-79
2022/01/27 02:54:17;;;;;;;58.50;32.33;;;6.10;91.50;;;;;;6169560;23;20028;-79
2022/01/27 02:56:46;;;;;;;61.15;30.65;;;6.10;91.50;;;;;;6139937;23;20013;-80
2022/01/27 02:59:21;;;;;;;59.85;30.40;;;6.10;91.50;;;;;;6136667;23;20017;-79
2022/01/27 03:01:48;;;;;;;57.67;30.92;;;6.10;91.50;;;;;;6109510;23;20048;-79
2022/01/27 03:04:34;;;;;;;63.30;32.22;;;6.10;91.50;;;;;;6139919;23;20084;-78
2022/01/27 03:07:06;;;;;;;65.78;32.17;;;6.10;91.50;;;;;;6113998;23;20024;-79
2022/01/27 03:09:33;;;;;;;56.97;29.40;;;6.10;91.60;;;;;;6161611;23;20049;-80
2022/01/27 03:12:18;;;;;;;64.50;32.95;;;6.10;91.50;;;;;;6131797;23;20028;-80
2022/01/27 03:14:54;;;;;;;60.40;31.35;;;6.10;91.50;;;;;;6106385;23;20049;-80
2022/01/27 03:17:22;;;;;;;64.47;32.28;;;6.10;91.50;;;;;;6108142;23;20066;-80
2022/01/27 03:19:51;;;;;;;62.17;32.55;;;6.20;91.50;;;;;;6133190;23;20092;-80
2022/01/27 03:22:26;;;;;;;61.55;32.28;;;6.10;91.50;;;;;;6130901;23;20399;-80
2022/01/27 03:25:10;;;;;;;66.20;33.00;;;6.10;91.50;;;;;;6140474;23;20021;-80
2022/01/27 03:28:12;;;;;;;63.78;34.38;;;6.10;91.50;;;;;;6132649;23;20115;-82
2022/01/27 03:30:40;;;;;;;59.85;31.02;;;6.10;91.50;;;;;;6133916;23;20065;-83
2022/01/27 03:33:11;;;;;;;63.13;32.72;;;6.20;91.50;;;;;;6111193;23;20017;-79
2022/01/27 03:36:00;;;;;;;63.47;32.03;;;6.10;91.50;;;;;;6135730;23;20097;-80
2022/01/27 03:38:33;;;;;;;58.30;30.58;;;6.10;91.50;;;;;;6158947;23;20017;-80
2022/01/27 03:41:11;;;;;;;66.63;31.70;;;6.20;91.50;;;;;;6160244;23;20475;-80
2022/01/27 03:43:43;;;;;;;63.42;32.00;;;6.20;91.50;;;;;;6110165;23;20028;-80
2022/01/27 03:46:10;;;;;;;62.35;33.47;;;6.10;91.50;;;;;;6133949;23;20021;-79
2022/01/27 03:48:42;;;;;;;65.45;34.25;;;6.20;91.50;;;;;;6110606;23;20056;-81
2022/01/27 03:51:15;;;;;;;64.43;34.42;;;6.20;91.50;;;;;;6088133;23;20018;-79
2022/01/27 03:53:56;;;;;;;65.18;33.85;;;6.20;91.60;;;;;;6157879;23;20028;-79
2022/01/27 03:56:49;;;;;;;67.25;35.05;;;6.10;91.70;;;;;;6114045;23;20024;-79
2022/01/27 03:59:26;;;;;;;67.07;33.05;;;6.10;91.80;;;;;;6004006;23;3672701;-78
2022/01/27 04:02:05;;;;;;;61.03;33.15;;;6.10;91.80;;;;;;6166031;23;20021;-78
2022/01/27 04:04:31;;;;;;;67.78;33.25;;;6.10;91.90;;;;;;6165459;23;20024;-79
2022/01/27 04:06:58;;;;;;;66.80;33.88;;;6.20;92.00;;;;;;6139348;23;20013;-78
2022/01/27 04:09:28;;;;;;;64.22;33.65;;;6.10;92.00;;;;;;6116243;23;20397;-79
2022/01/27 04:12:06;;;;;;;63.70;33.00;;;6.10;92.10;;;;;;6120770;23;20044;-79
2022/01/27 04:14:36;;;;;;;65.38;33.45;;;6.10;92.10;;;;;;6139676;23;20059;-81
2022/01/27 04:17:06;;;;;;;66.72;33.75;;;6.00;92.00;;;;;;6140184;23;20031;-78
2022/01/27 04:19:34;;;;;;;66.68;33.97;;;6.00;92.10;;;;;;6134928;23;20024;-79
2022/01/27 04:22:09;;;;;;;60.45;31.30;;;6.00;92.10;;;;;;6114655;23;20075;-79
2022/01/27 04:24:51;;;;;;;64.57;32.72;;;6.00;92.10;;;;;;6165063;23;20024;-79
2022/01/27 04:27:23;;;;;;;66.47;31.88;;;6.00;92.00;;;;;;6190640;23;20023;-79
2022/01/27 04:29:52;;;;;;;62.72;31.77;;;6.00;92.00;;;;;;6165045;23;20400;-80
2022/01/27 04:32:24;;;;;;;70.22;33.13;;;6.00;92.00;;;;;;6114860;23;20047;-79
2022/01/27 04:34:52;;;;;;;61.90;32.95;;;6.00;92.00;;;;;;6115721;23;20083;-79
2022/01/27 04:37:42;;;;;;;69.70;33.55;;;6.00;92.00;;;;;;6146635;23;20398;-79
2022/01/27 04:40:15;;;;;;;69.55;33.92;;;6.10;92.00;;;;;;6140231;23;20021;-79
2022/01/27 04:42:57;;;;;;;62.83;32.17;;;6.00;92.00;;;;;;6140881;23;20048;-80
2022/01/27 04:45:30;;;;;;;64.93;32.20;;;6.00;92.00;;;;;;6164264;23;20079;-80
2022/01/27 04:48:11;;;;;;;61.95;31.90;;;6.10;92.00;;;;;;6143515;23;20027;-79
2022/01/27 04:50:38;;;;;;;61.85;32.17;;;6.00;92.00;;;;;;6188870;23;20103;-79
2022/01/27 04:53:33;;;;;;;69.68;34.05;;;6.10;92.00;;;;;;6166635;23;20021;-79
2022/01/27 04:56:01;;;;;;;62.33;31.60;;;6.10;92.00;;;;;;6137344;23;20116;-79
2022/01/27 04:58:32;;;;;;;68.47;32.25;;;6.10;92.00;;;;;;6160949;23;20025;-79
2022/01/27 05:01:08;;;;;;;63.88;31.23;;;6.10;92.00;;;;;;6165495;23;20088;-78
2022/01/27 05:03:45;;;;;;;60.08;32.08;;;6.20;92.10;;;;;;6139804;23;20013;-79
2022/01/27 05:06:36;;;;;;;66.55;33.10;;;6.10;92.10;;;;;;6119242;23;20052;-79
2022/01/27 05:09:11;;;;;;;68.97;31.83;;;6.10;92.10;;;;;;6144759;23;20024;-78
2022/01/27 05:12:06;;;;;;;67.10;33.88;;;6.10;92.20;;;;;;6128334;23;20093;-78
2022/01/27 05:14:38;;;;;;;67.88;32.75;;;6.10;92.20;;;;;;6063418;23;20073;-78
2022/01/27 05:17:04;;;;;;;63.05;32.25;;;6.10;92.30;;;;;;6055050;23;20396;-78
2022/01/27 05:19:37;;;;;;;63.38;31.98;;;6.10;92.40;;;;;;6055260;23;20037;-79
2022/01/27 05:22:06;;;;;;;61.95;29.98;;;6.10;92.50;;;;;;6103733;23;20014;-78
2022/01/27 05:24:34;;;;;;;58.17;30.65;;;6.10;92.50;;;;;;6080059;23;20014;-79
2022/01/27 05:27:06;;;;;;;65.05;30.85;;;6.10;92.60;;;;;;6036103;23;20313;-78
2022/01/27 05:29:39;;;;;;;68.70;30.73;;;6.10;92.60;;;;;;6082796;23;20373;-79
2022/01/27 05:32:05;;;;;;;59.30;30.15;;;6.10;92.60;;;;;;6055642;23;20033;-78
2022/01/27 05:34:39;;;;;;;57.50;29.45;;;6.10;92.60;;;;;;6056477;23;20022;-78
2022/01/27 05:37:16;;;;;;;64.00;30.65;;;6.10;92.60;;;;;;6054727;23;20022;-79
2022/01/27 05:39:45;;;;;;;63.85;29.45;;;6.10;92.60;;;;;;6078368;23;20058;-79
2022/01/27 05:42:20;;;;;;;63.05;30.85;;;6.20;92.60;;;;;;6098549;23;20404;-79
2022/01/27 05:44:55;;;;;;;57.85;27.80;;;6.20;92.60;;;;;;6146333;23;20103;-79
2022/01/27 05:47:28;;;;;;;56.42;26.92;;;6.20;92.70;;;;;;6108729;23;20021;-78
2022/01/27 05:50:18;;;;;;;57.85;29.60;;;6.20;92.60;;;;;;6171139;23;20328;-79
2022/01/27 05:52:49;;;;;;;55.83;27.23;;;6.20;92.60;;;;;;6166763;23;20021;-78
2022/01/27 05:55:16;;;;;;;58.33;30.27;;;6.20;92.70;;;;;;6129338;23;20097;-79
2022/01/27 05:57:44;;;;;;;59.72;28.98;;;6.20;92.70;;;;;;6116401;23;20044;-80
2022/01/27 06:00:27;;;;;;;65.30;30.38;;;6.20;92.70;;;;;;6165899;23;20049;-78
2022/01/27 06:02:53;;;;;;;;;;;6.20;92.80;;;;;;6143064;23;20393;-79
2022/01/27 06:05:26;;;;;;;66.03;30.38;;;6.20;93.10;;;;;;6142261;23;19916;-78
2022/01/27 06:07:58;;;;;;;66.60;29.88;;;6.20;92.90;;;;;;6144247;23;20502;-81
2022/01/27 06:10:25;;;;;;;63.70;30.35;;;6.20;93.00;;;;;;6163736;23;20047;-78
2022/01/27 06:12:56;;;;;;;63.08;30.00;;;6.20;93.10;;;;;;6141571;23;20056;-80
2022/01/27 06:15:27;;;;;;;66.97;31.50;;;6.20;93.20;;;;;;6140530;23;20089;-80
2022/01/27 06:18:18;;;;;;;60.08;29.77;;;6.20;93.30;;;;;;6141947;23;20079;-80
2022/01/27 06:20:55;;;;;;;70.13;31.60;;;6.20;93.50;;;;;;6178510;23;20059;-79
2022/01/27 06:23:20;;;;;;;60.97;30.98;;;6.20;93.50;;;;;;6161425;23;20052;-79
2022/01/27 06:25:48;;;;;;;65.43;31.60;;;6.20;93.60;;;;;;6164392;23;20020;-80
2022/01/27 06:28:23;;;;;;;64.57;31.85;;;6.20;93.70;;;;;;6139935;23;20013;-80
2022/01/27 06:30:56;;;;;;;63.58;30.95;;;6.20;93.70;;;;;;6140434;23;20471;-81
2022/01/27 06:33:24;;;;;;;60.03;29.15;;;6.20;93.80;;;;;;6113518;23;20013;-82
2022/01/27 06:35:56;;;;;;;61.28;29.38;;;6.20;93.80;;;;;;6140921;23;20059;-81
2022/01/27 06:38:33;;;;;;;61.42;29.65;;;6.20;94.00;;;;;;6104362;23;20022;-80
2022/01/27 06:41:10;;;;;;;69.10;33.53;;;6.20;94.00;;;;;;6104031;23;20093;-84
2022/01/27 06:43:37;;;;;;;62.20;31.77;;;6.20;94.10;;;;;;6080221;23;20068;-81
2022/01/27 06:46:29;;;;;;;62.97;30.33;;;6.20;93.80;;;;;;6083650;23;20026;-82
2022/01/27 06:48:55;;;;;;;63.30;32.20;;;6.20;94.30;;;;;;6080220;23;20180;-82
2022/01/27 06:51:26;;;;;;;64.07;30.17;;;6.20;94.30;;;;;;6055953;23;20570;-80
2022/01/27 06:54:02;;;;;;;75.05;34.75;;;6.20;94.30;;;;;;6085230;23;20057;-80
2022/01/27 06:56:30;;;;;;;62.60;31.25;;;6.20;94.40;;;;;;6080291;23;20089;-80
2022/01/27 06:58:56;;;;;;;63.20;32.30;;;6.20;94.40;;;;;;6056716;23;20022;-77
2022/01/27 07:01:22;;;;;;;61.30;31.17;;;6.20;94.50;;;;;;6055281;23;20025;-79
2022/01/27 07:03:48;;;;;;;66.95;31.65;;;6.20;94.50;;;;;;6079701;23;20440;-78
2022/01/27 07:06:14;;;;;;;61.03;30.77;;;6.20;94.60;;;;;;6103707;23;20025;-83
2022/01/27 07:08:43;;;;;;;59.50;31.90;;;6.20;94.60;;;;;;6064983;23;20032;-81
2022/01/27 07:11:08;;;;;;;66.60;31.92;;;6.30;94.70;;;;;;6141122;23;20015;-84
2022/01/27 07:13:40;;;;;;;64.43;32.22;;;6.30;94.70;;;;;;6118017;23;20071;-86
2022/01/27 07:16:09;;;;;;;60.65;31.42;;;6.20;94.70;;;;;;6120041;23;20041;-86
2022/01/27 07:18:39;;;;;;;61.67;31.70;;;6.20;94.80;;;;;;6142621;23;20021;-85
2022/01/27 07:21:10;;;;;;;52.75;27.65;;;6.30;95.10;;;;;;6141044;23;20115;-82
2022/01/27 07:23:45;;;;;;;62.45;30.85;;;6.30;95.00;;;;;;6143681;23;20304;-82
2022/01/27 07:26:24;;;;;;;52.28;28.80;;;6.30;95.00;;;;;;6115368;23;20017;-82
2022/01/27 07:28:51;;;;;;;56.20;28.45;;;6.30;95.00;;;;;;6144471;23;20024;-81
2022/01/27 07:31:16;;;;;;;53.45;27.33;;;6.30;95.10;;;;;;6140394;23;20021;-92
2022/01/27 07:33:48;;;;;;;51.42;27.02;;;6.30;95.10;;;;;;6117955;23;20384;-82
2022/01/27 07:36:38;;;;;;;50.10;27.10;;;6.30;95.10;;;;;;6169568;23;20013;-82
2022/01/27 07:39:23;;;;;;;45.15;24.00;;;6.40;95.20;;;;;;6142468;23;20017;-82
2022/01/27 07:42:00;;;;;;;49.95;25.88;;;6.40;95.20;;;;;;6143492;23;20028;-82
2022/01/27 07:44:31;;;;;;;49.95;25.67;;;6.40;95.20;;;;;;6164338;23;20052;-82
2022/01/27 07:47:28;;;;;;;42.85;24.55;;;6.40;95.30;;;;;;6108533;23;20018;-83
2022/01/27 07:50:06;;;;;;;45.75;25.23;;;6.40;95.30;;;;;;6130035;23;20025;-82
2022/01/27 07:52:49;;;;;;;41.80;25.25;;;6.40;95.40;;;;;;6085405;23;20053;-81
2022/01/27 07:55:36;;;;;;;52.42;26.80;;;6.40;95.40;;;;;;6108600;23;20192;-81
2022/01/27 07:58:29;;;;;;;48.13;25.90;;;6.40;95.40;;;;;;6095469;23;20017;-81
2022/01/27 08:01:14;;;;;;;43.03;25.83;;;6.40;95.50;;;;;;6082486;23;20045;-81
2022/01/27 08:04:18;;;;;;;47.65;25.50;;;6.40;95.50;;;;;;6130043;23;20045;-81
2022/01/27 08:07:21;;;;;;;47.58;26.65;;;6.40;95.60;;;;;;6127259;23;20480;-80
2022/01/27 08:10:05;;;;;;;52.95;26.15;;;6.50;95.70;;;;;;6108072;23;20021;-80
2022/01/27 08:12:52;;;;;;;53.78;26.67;;;6.50;95.70;;;;;;6128606;23;20022;-80
2022/01/27 08:15:22;;;;;;;56.28;27.17;;;6.50;95.70;;;;;;6055638;23;20132;-82
2022/01/27 08:18:01;;;;;;;50.78;26.40;;;6.60;95.80;;;;;;6125529;23;20018;-80
2022/01/27 08:20:28;;;;;;;53.20;27.05;;;6.50;95.80;;;;;;6140281;23;20041;-79
2022/01/27 08:23:05;;;;;;;53.08;28.65;;;6.60;95.90;;;;;;6163426;23;20087;-81
2022/01/27 08:25:33;;;;;;;55.78;26.17;;;6.60;95.90;;;;;;6137060;23;20036;-81
2022/01/27 08:28:17;;;;;;;54.80;26.83;;;6.70;96.00;;;;;;6164962;23;20087;-82
2022/01/27 08:30:56;;;;;;;60.53;28.75;;;6.70;96.10;;;;;;6127195;23;20017;-80
2022/01/27 08:33:29;;;;;;;52.58;26.88;;;6.70;96.10;;;;;;6143480;23;20075;-80
2022/01/27 08:36:22;;;;;;;60.72;27.60;;;6.70;96.20;;;;;;6154445;23;20025;-82
2022/01/27 08:39:10;;;;;;;36.30;17.92;;;6.80;96.30;;;;;;6114621;23;20020;-83
2022/01/27 08:41:38;;;;;;;45.20;21.70;;;6.90;96.50;;;;;;6116859;23;20032;-87
2022/01/27 08:44:07;;;;;;;51.00;24.40;;;7.60;96.90;;;;;;6118657;23;20021;-83
2022/01/27 08:46:37;;;;;;;42.00;20.45;;;7.60;96.10;;;;;;6116584;23;20073;-83
2022/01/27 08:49:12;;;;;;;45.60;21.95;;;7.60;95.70;;;;;;6146775;23;20127;-81
2022/01/27 08:51:38;;;;;;;45.78;21.95;;;7.60;95.70;;;;;;6142954;23;20053;-80
2022/01/27 08:54:13;;;;;;;44.20;22.75;;;7.50;95.70;;;;;;6143667;23;20021;-87
2022/01/27 08:56:39;;;;;;;39.83;22.63;;;7.50;95.80;;;;;;6121441;23;20013;-76
2022/01/27 08:59:05;;;;;;;39.83;20.75;;;7.50;95.90;;;;;;6166993;23;20024;-80
2022/01/27 09:01:31;;;;;;;41.60;21.50;;;7.40;96.00;;;;;;6141048;23;20048;-78
2022/01/27 09:03:59;;;;;;;46.45;21.92;;;7.40;96.00;;;;;;6138887;23;20045;-81
2022/01/27 09:06:28;;;;;;;50.22;22.92;;;7.40;96.10;;;;;;6115745;23;20021;-86
2022/01/27 09:08:54;;;;;;;43.03;20.77;;;7.40;96.10;;;;;;6166830;23;20073;-76
2022/01/27 09:11:20;;;;;;;46.47;23.23;;;7.50;96.20;;;;;;6167374;23;20046;-83
2022/01/27 09:13:46;;;;;;;45.13;22.58;;;7.50;96.30;;;;;;6118853;23;20017;-81
2022/01/27 09:16:12;;;;;;;46.50;21.15;;;7.50;96.30;;;;;;6118997;23;20056;-81
2022/01/27 09:18:37;;;;;;;44.83;20.17;;;7.60;96.30;;;;;;6118025;23;20029;-81
2022/01/27 09:21:08;;;;;;;46.75;20.65;;;7.60;96.30;;;;;;6141549;23;20099;-77
2022/01/27 09:23:40;;;;;;;43.72;20.58;;;7.70;96.30;;;;;;6144228;23;20025;-80
2022/01/27 09:26:26;;;;;;;41.75;18.70;;;7.70;96.30;;;;;;6141962;23;20073;-77
2022/01/27 09:28:53;;;;;;;46.55;19.40;;;7.70;96.20;;;;;;6120028;23;20068;-80
2022/01/27 09:31:21;;;;;;;43.17;19.65;;;7.80;96.30;;;;;;6140836;23;20021;-78
2022/01/27 09:33:47;;;;;;;42.92;18.77;;;7.80;96.30;;;;;;6116966;23;20024;-79
2022/01/27 09:36:16;;;;;;;34.05;17.13;;;7.80;96.30;;;;;;6168733;23;20067;-80
2022/01/27 09:38:43;;;;;;;35.95;17.58;;;7.80;96.30;;;;;;6113871;23;20017;-80
2022/01/27 09:41:11;;;;;;;32.35;15.77;;;7.80;96.30;;;;;;6140108;23;20080;-77
2022/01/27 09:43:42;;;;;;;39.47;17.05;;;7.90;96.30;;;;;;6169008;23;20467;-79
2022/01/27 09:46:10;;;;;;;38.72;16.45;;;7.90;96.30;;;;;;6140663;23;20021;-75
2022/01/27 09:48:41;;;;;;;37.80;16.73;;;7.90;96.30;;;;;;6139948;23;20025;-78
2022/01/27 09:53:48;;;;;;;29.38;14.63;;;8.00;96.30;;;;;;6142129;23;20060;-77
2022/01/27 09:56:14;;;;;;;32.95;14.25;;;8.10;96.30;;;;;;6164326;23;20088;-76
2022/01/27 09:58:39;;;;;;;33.22;15.07;;;8.10;96.20;;;;;;6164595;23;20024;-77
2022/01/27 10:01:05;;;;;;;39.80;14.70;;;8.20;96.20;;;;;;6138880;23;20020;-77
2022/01/27 10:03:31;;;;;;;29.58;14.38;;;8.20;96.10;;;;;;6112292;23;20384;-77
2022/01/27 10:06:14;;;;;;;30.40;14.85;;;8.30;96.10;;;;;;6160894;23;20462;-77
2022/01/27 10:08:43;;;;;;;38.42;14.82;;;8.30;96.10;;;;;;6114452;23;20024;-75
2022/01/27 10:11:16;;;;;;;28.80;13.82;;;8.30;96.00;;;;;;6140198;23;20017;-76
2022/01/27 10:13:45;;;;;;;28.08;13.55;;;8.30;96.10;;;;;;6137666;23;20015;-74
2022/01/27 10:16:30;;;;;;;28.50;14.35;;;8.30;96.10;;;;;;6139363;23;20075;-77
2022/01/27 10:19:05;;;;;;;31.15;12.30;;;8.30;96.00;;;;;;6138572;23;20096;-77
2022/01/27 10:21:31;;;;;;;38.10;13.20;;;8.30;96.00;;;;;;6140427;23;20030;-78
2022/01/27 10:24:21;;;;;;;27.55;13.30;;;8.30;95.90;;;;;;6146355;23;20021;-79
2022/01/27 10:26:54;;;;;;;35.38;12.55;;;8.30;95.90;;;;;;6116499;23;20102;-76
2022/01/27 10:29:35;;;;;;;30.33;12.25;;;8.40;95.90;;;;;;6142710;23;20021;-77
2022/01/27 10:32:07;;;;;;;25.67;12.32;;;8.40;95.90;;;;;;6120196;23;20025;-79
2022/01/27 10:35:00;;;;;;;29.60;12.18;;;8.40;95.90;;;;;;6147670;23;20032;-83
2022/01/27 10:37:26;;;;;;;31.30;13.55;;;8.40;96.00;;;;;;6179727;23;20017;-76
2022/01/27 10:40:42;;;;;;;32.15;11.85;;;8.40;96.00;;;;;;6145789;23;20017;-79
2022/01/27 10:43:25;;;;;;;27.88;11.20;;;8.40;96.00;;;;;;6159696;23;20033;-82
2022/01/27 10:46:09;;;;;;;29.70;12.13;;;8.40;96.00;;;;;;6163706;23;20392;-82
2022/01/27 10:48:46;;;;;;;24.33;11.50;;;8.40;96.00;;;;;;6142486;23;20067;-80
2022/01/27 10:51:24;;;;;;;27.70;12.40;;;8.40;96.10;;;;;;6116996;23;20021;-79
2022/01/27 10:54:06;;;;;;;28.60;11.98;;;8.40;96.10;;;;;;6142101;23;20191;-77
2022/01/27 10:56:37;;;;;;;24.10;10.82;;;8.40;96.10;;;;;;6141933;23;20017;-80
2022/01/27 10:59:21;;;;;;;;;;;;;;;;;;;;;
2022/01/27 11:01:49;;;;;;;22.48;9.85;;;8.50;96.10;;;;;;6142118;23;20019;-80
2022/01/27 11:04:16;;;;;;;20.70;10.40;;;8.50;96.10;;;;;;6140881;23;20025;-77
2022/01/27 11:07:02;;;;;;;24.98;11.27;;;8.50;96.10;;;;;;6165042;23;20384;-77
2022/01/27 11:09:29;;;;;;;22.95;9.75;;;8.60;96.10;;;;;;6140052;23;20024;-78
2022/01/27 11:11:56;;;;;;;23.67;10.98;;;8.60;96.00;;;;;;6140466;23;20049;-83
2022/01/27 11:14:25;;;;;;;21.70;10.32;;;8.60;96.00;;;;;;6164605;23;20024;-77
2022/01/27 11:16:55;;;;;;;22.42;10.18;;;8.60;96.00;;;;;;6140349;23;20017;-80
2022/01/27 11:19:39;;;;;;;25.10;11.38;;;8.70;96.00;;;;;;6141092;23;20024;-79
2022/01/27 11:27:45;;;;;;;22.83;10.77;;;8.80;95.90;;;;;;6143551;23;20021;-79
2022/01/27 11:30:24;;;;;;;22.75;11.70;;;8.90;95.90;;;;;;6140669;23;20017;-78
2022/01/27 11:33:10;;;;;;;23.60;9.45;;;9.00;95.80;;;;;;6142396;23;20068;-79
2022/01/27 11:35:38;;;;;;;19.85;8.98;;;9.20;95.70;;;;;;6141392;23;20021;-79
2022/01/27 11:38:08;;;;;;;22.48;9.02;;;9.20;95.60;;;;;;6165071;23;20399;-79
2022/01/27 11:40:38;;;;;;;24.75;10.45;;;9.30;95.50;;;;;;6165707;23;20017;-79
2022/01/27 11:43:12;;;;;;;23.77;9.00;;;9.30;95.40;;;;;;6115953;23;20088;-76
2022/01/27 11:45:47;;;;;;;22.85;8.38;;;9.40;95.40;;;;;;6112834;23;20091;-77
2022/01/27 11:48:15;;;;;;;24.02;8.55;;;9.40;95.40;;;;;;6136658;23;20024;-76
2022/01/27 11:50:56;;;;;;;16.15;7.45;;;9.40;95.40;;;;;;6139212;23;20076;-77
2022/01/27 11:53:40;;;;;;;18.17;7.40;;;9.40;95.40;;;;;;6117704;23;20031;-77
2022/01/27 11:56:06;;;;;;;20.60;7.30;;;9.40;95.40;;;;;;6163601;23;20428;-78
2022/01/27 11:58:47;;;;;;;19.55;8.75;;;9.40;95.30;;;;;;6164119;23;20017;-78
2022/01/27 12:01:18;;;;;;;24.92;7.47;;;9.40;95.30;;;;;;6139049;23;20056;-77
2022/01/27 12:04:04;;;;;;;15.15;6.55;;;9.50;95.30;;;;;;6115327;23;20017;-77
2022/01/27 12:06:39;;;;;;;17.13;5.90;;;9.50;95.20;;;;;;6139112;23;20032;-80
2022/01/27 12:09:17;;;;;;;18.70;5.50;;;9.60;95.20;;;;;;6140518;23;20075;-78
2022/01/27 12:11:55;;;;;;;19.65;5.90;;;9.70;95.10;;;;;;6138266;23;20048;-77
2022/01/27 12:14:24;;;;;;;15.95;5.70;;;9.70;95.00;;;;;;6140491;23;20017;-77
2022/01/27 12:17:08;;;;;;;15.43;6.53;;;9.80;94.90;;;;;;6140758;23;20017;-76
2022/01/27 12:19:52;;;;;;;17.35;5.65;;;9.80;94.70;;;;;;6140206;23;20021;-78
2022/01/27 12:22:18;;;;;;;21.65;5.53;;;9.80;94.70;;;;;;6139550;23;20017;-82
2022/01/27 12:25:10;;;;;;;17.60;6.32;;;9.90;94.70;;;;;;6139687;23;20395;-78
2022/01/27 12:27:36;;;;;;;24.67;7.07;;;9.90;94.50;;;;;;6135075;23;20031;-79
2022/01/27 12:30:06;;;;;;;14.75;6.65;;;9.90;94.50;;;;;;6115937;23;20053;-79
2022/01/27 12:32:32;;;;;;;16.20;6.28;;;9.90;94.50;;;;;;6141092;23;20017;-80
2022/01/27 12:35:03;;;;;;;16.38;5.80;;;9.90;94.40;;;;;;6140193;23;20048;-79
2022/01/27 12:37:36;;;;;;;15.60;5.70;;;9.90;94.40;;;;;;6166415;23;20463;-80
2022/01/27 12:40:22;;;;;;;20.70;5.00;;;9.90;94.40;;;;;;6139894;23;20034;-80
2022/01/27 12:42:57;;;;;;;17.02;5.68;;;9.90;94.30;;;;;;6164929;23;20100;-80
2022/01/27 12:45:27;;;;;;;17.60;5.20;;;9.90;94.30;;;;;;6117850;23;20019;-79
2022/01/27 12:47:53;;;;;;;17.98;4.88;;;9.90;94.20;;;;;;6117265;23;20095;-79
2022/01/27 12:50:20;;;;;;;14.80;5.10;;;9.90;94.30;;;;;;6117172;23;20021;-79
2022/01/27 12:52:47;;;;;;;15.02;5.20;;;9.90;94.20;;;;;;6142598;23;20043;-76
2022/01/27 12:55:17;;;;;;;17.55;6.07;;;9.90;94.20;;;;;;6166562;23;20078;-78
2022/01/27 12:57:43;;;;;;;19.73;6.15;;;9.90;94.10;;;;;;6117621;23;20017;-78
2022/01/27 13:00:12;;;;;;;13.00;5.07;;;9.90;94.10;;;;;;6165325;23;20076;-80
2022/01/27 13:02:38;;;;;;;10.73;4.35;;;9.90;94.10;;;;;;6112736;23;20022;-80
2022/01/27 13:05:05;;;;;;;25.05;5.57;;;9.90;94.00;;;;;;6135605;23;20017;-80
2022/01/27 13:07:33;;;;;;;16.95;4.90;;;10.00;94.00;;;;;;6136095;23;20068;-79
2022/01/27 13:10:12;;;;;;;12.43;4.65;;;9.90;93.90;;;;;;6135990;23;20100;-82
2022/01/27 13:12:53;;;;;;;13.43;5.03;;;10.00;93.90;;;;;;6113340;23;20025;-78
2022/01/27 13:15:25;;;;;;;15.30;4.65;;;10.00;93.80;;;;;;6135209;23;20020;-78
2022/01/27 13:22:53;;;;;;;17.27;4.38;;;10.10;93.70;;;;;;6110514;23;20021;-79
2022/01/27 13:25:22;;;;;;;18.17;4.53;;;10.10;93.60;;;;;;6109871;23;20020;-83
2022/01/27 13:28:28;;;;;;;19.10;4.65;;;10.10;93.50;;;;;;6111006;23;20124;-81
2022/01/27 13:31:15;;;;;;;17.27;4.82;;;10.20;93.30;;;;;;6112559;23;20104;-80
2022/01/27 13:33:42;;;;;;;20.30;4.88;;;10.20;93.30;;;;;;6136486;23;20082;-78
2022/01/27 13:36:30;;;;;;;15.30;4.47;;;10.10;93.40;;;;;;6109049;23;20021;-77
2022/01/27 13:39:12;;;;;;;15.35;4.85;;;10.10;93.10;;;;;;6134905;23;20360;-76
2022/01/27 13:41:45;;;;;;;17.05;4.40;;;10.10;93.30;;;;;;6135195;23;20024;-80
2022/01/27 13:44:11;;;;;;;12.52;3.90;;;10.10;93.30;;;;;;6134599;23;20057;-81
2022/01/27 13:46:42;;;;;;;17.02;4.30;;;10.00;93.30;;;;;;6133331;23;20031;-78
2022/01/27 13:49:09;;;;;;;18.52;4.80;;;10.00;93.20;;;;;;6157538;23;20021;-86
2022/01/27 13:51:52;;;;;;;16.73;5.18;;;10.00;93.20;;;;;;6130295;23;20017;-75
2022/01/27 13:54:30;;;;;;;20.00;5.05;;;10.00;93.10;;;;;;6132421;23;20018;-78
2022/01/27 13:57:09;;;;;;;19.20;3.67;;;10.00;93.10;;;;;;6132220;23;20022;-75
2022/01/27 14:00:09;;;;;;;15.40;3.92;;;10.00;93.00;;;;;;6156526;23;20026;-77
2022/01/27 14:02:40;;;;;;;17.80;4.57;;;9.90;93.00;;;;;;6173843;23;20044;-78
2022/01/27 14:05:12;;;;;;;19.67;4.50;;;9.90;93.00;;;;;;6190392;23;20025;-77
2022/01/27 14:07:38;;;;;;;16.60;3.97;;;10.00;93.00;;;;;;6190050;23;20016;-80
2022/01/27 14:10:15;;;;;;;15.43;3.90;;;9.90;92.80;;;;;;6139362;23;20017;-79
2022/01/27 14:12:47;;;;;;;19.67;4.40;;;9.90;92.90;;;;;;6165086;23;20088;-81
2022/01/27 14:15:42;;;;;;;15.48;3.75;;;9.90;92.80;;;;;;6138087;23;20108;-80
2022/01/27 14:18:09;;;;;;;20.92;4.28;;;9.90;92.80;;;;;;6140787;23;20016;-80
2022/01/27 14:20:57;;;;;;;14.38;4.47;;;9.90;92.80;;;;;;6165462;23;20021;-78